Time;durP1;ratioP1;P1;durP2;ratioP2;P2;SDS_P1;SDS_P2;PMS_P1;PMS_P2;Temp;Humidity;BMP_temperature;BMP_pressure;BME280_temperature;BME280_humidity;BME280_pressure;Samples;Min_cycle;Max_cycle;Signal;HPM_P1;HPM_P2
2021/09/06 00:02:12;;;;;;;10.48;8.75;;;20.90;91.10;;;;;;5073046;28;20036;-69
2021/09/06 00:04:38;;;;;;;14.25;8.48;;;20.90;91.30;;;;;;5073392;28;20028;-69
2021/09/06 00:07:03;;;;;;;11.93;8.32;;;20.90;90.90;;;;;;5073088;28;20044;-70
2021/09/06 00:09:32;;;;;;;11.48;8.32;;;20.90;90.70;;;;;;5073048;28;20491;-69
2021/09/06 00:11:58;;;;;;;9.70;7.80;;;20.80;91.00;;;;;;5073050;28;20095;-69
2021/09/06 00:14:24;;;;;;;13.43;8.80;;;20.80;91.00;;;;;;5073035;28;20016;-68
2021/09/06 00:16:49;;;;;;;10.43;8.40;;;20.60;91.60;;;;;;5073232;28;20390;-69
2021/09/06 00:19:15;;;;;;;11.40;8.27;;;20.60;91.10;;;;;;5073223;28;20063;-69
2021/09/06 00:21:41;;;;;;;11.57;8.10;;;20.70;91.00;;;;;;5073090;28;20029;-69
2021/09/06 00:24:07;;;;;;;11.00;8.27;;;20.60;91.50;;;;;;5073072;28;20025;-69
2021/09/06 00:26:33;;;;;;;11.27;8.55;;;20.50;91.20;;;;;;5076965;28;20016;-70
2021/09/06 00:28:58;;;;;;;9.43;7.95;;;20.60;91.10;;;;;;5076868;28;20466;-69
2021/09/06 00:31:24;;;;;;;10.95;8.57;;;20.40;91.20;;;;;;5076790;28;20059;-69
2021/09/06 00:33:50;;;;;;;11.55;7.88;;;20.40;91.20;;;;;;5076848;28;20031;-69
2021/09/06 00:36:16;;;;;;;9.98;7.90;;;20.40;91.20;;;;;;5076805;28;20391;-70
2021/09/06 00:38:42;;;;;;;10.77;8.38;;;20.50;90.90;;;;;;5076985;28;20213;-69
2021/09/06 00:41:08;;;;;;;10.27;8.00;;;20.50;90.90;;;;;;5076958;28;20017;-69
2021/09/06 00:43:36;;;;;;;11.05;8.45;;;20.50;91.30;;;;;;5076576;28;20035;-69
2021/09/06 00:46:02;;;;;;;10.98;8.13;;;20.50;91.20;;;;;;5076589;28;20024;-68
2021/09/06 00:48:28;;;;;;;13.35;8.25;;;20.50;90.70;;;;;;5076799;28;20025;-69
2021/09/06 00:50:55;;;;;;;12.73;8.63;;;20.50;90.80;;;;;;5076478;28;20016;-69
2021/09/06 00:53:21;;;;;;;11.45;8.82;;;20.50;90.50;;;;;;5076440;28;20379;-69
2021/09/06 00:55:47;;;;;;;10.50;7.97;;;20.40;90.70;;;;;;5076356;28;20441;-69
2021/09/06 00:58:13;;;;;;;10.48;7.70;;;20.30;90.80;;;;;;5076237;28;20024;-68
2021/09/06 01:00:39;;;;;;;11.55;8.02;;;20.20;91.20;;;;;;5076327;28;20024;-69
2021/09/06 01:03:04;;;;;;;10.07;7.78;;;20.30;91.30;;;;;;5076175;28;20061;-69
2021/09/06 01:05:30;;;;;;;10.65;8.05;;;20.20;91.30;;;;;;5076171;28;20025;-69
2021/09/06 01:07:56;;;;;;;11.65;8.30;;;20.30;91.30;;;;;;5075867;28;20045;-69
2021/09/06 01:10:23;;;;;;;12.57;8.52;;;20.20;91.20;;;;;;5076377;28;20470;-69
2021/09/06 01:12:49;;;;;;;13.13;8.02;;;20.00;91.80;;;;;;5076097;28;20025;-69
2021/09/06 01:15:15;;;;;;;9.57;7.65;;;20.00;91.80;;;;;;5076008;28;20020;-69
2021/09/06 01:17:41;;;;;;;10.85;7.72;;;20.20;91.40;;;;;;5075961;28;20380;-69
2021/09/06 01:20:09;;;;;;;11.55;8.05;;;20.10;90.80;;;;;;5076250;28;20020;-69
2021/09/06 01:22:35;;;;;;;10.55;8.82;;;20.10;90.90;;;;;;5076079;28;20035;-69
2021/09/06 01:25:01;;;;;;;10.95;8.57;;;20.20;90.70;;;;;;5075889;28;20016;-70
2021/09/06 01:27:27;;;;;;;10.27;7.13;;;20.00;91.10;;;;;;5075870;28;20031;-68
2021/09/06 01:29:52;;;;;;;10.43;7.90;;;19.90;90.30;;;;;;5076138;28;20020;-70
2021/09/06 01:32:18;;;;;;;11.07;8.57;;;19.90;90.50;;;;;;5075732;28;20032;-68
2021/09/06 01:34:44;;;;;;;10.13;8.43;;;20.00;91.00;;;;;;5075750;28;20020;-69
2021/09/06 01:37:10;;;;;;;10.07;8.40;;;20.00;91.50;;;;;;5074944;28;20031;-69
2021/09/06 01:39:35;;;;;;;10.15;8.13;;;19.90;91.60;;;;;;5075607;28;20082;-69
2021/09/06 01:42:01;;;;;;;12.45;7.72;;;19.90;91.90;;;;;;5075494;28;20120;-69
2021/09/06 01:44:27;;;;;;;11.10;7.90;;;20.00;91.20;;;;;;5075810;28;20059;-69
2021/09/06 01:46:53;;;;;;;12.02;8.18;;;19.90;91.10;;;;;;5075486;28;20032;-69
2021/09/06 01:49:19;;;;;;;11.60;7.97;;;19.90;91.40;;;;;;5074153;28;20063;-69
2021/09/06 01:51:44;;;;;;;11.80;8.77;;;19.80;91.60;;;;;;5075389;28;20032;-69
2021/09/06 01:54:11;;;;;;;12.07;9.10;;;19.70;91.70;;;;;;5075364;28;20509;-69
2021/09/06 01:56:37;;;;;;;13.75;9.93;;;19.70;91.70;;;;;;5075702;28;20154;-69
2021/09/06 01:59:03;;;;;;;12.50;8.88;;;19.80;91.70;;;;;;5075232;28;20021;-69
2021/09/06 02:01:29;;;;;;;12.00;8.55;;;19.90;91.20;;;;;;5075131;28;20024;-69
2021/09/06 02:03:55;;;;;;;12.32;9.25;;;19.90;90.70;;;;;;5075157;28;20036;-69
2021/09/06 02:06:21;;;;;;;12.43;8.90;;;19.80;91.20;;;;;;5074920;28;20470;-68
2021/09/06 02:08:46;;;;;;;14.35;9.48;;;19.70;91.40;;;;;;5075402;28;20035;-69
2021/09/06 02:11:12;;;;;;;11.35;9.32;;;19.70;91.50;;;;;;5075040;28;20055;-69
2021/09/06 02:13:38;;;;;;;13.95;9.40;;;19.60;91.50;;;;;;5075245;28;20033;-69
2021/09/06 02:16:04;;;;;;;12.70;9.40;;;19.50;91.80;;;;;;5075160;28;20094;-69
2021/09/06 02:18:30;;;;;;;13.15;9.23;;;19.50;91.70;;;;;;5074863;28;20060;-69
2021/09/06 02:20:55;;;;;;;12.77;9.05;;;19.50;91.60;;;;;;5074804;28;20066;-69
2021/09/06 02:23:21;;;;;;;11.35;9.20;;;19.30;91.80;;;;;;5074673;28;20028;-69
2021/09/06 02:25:47;;;;;;;11.75;9.45;;;19.30;91.90;;;;;;5074692;28;20017;-69
2021/09/06 02:28:12;;;;;;;12.57;8.98;;;19.40;91.60;;;;;;5074662;28;20482;-69
2021/09/06 02:30:38;;;;;;;12.45;10.05;;;19.50;91.40;;;;;;5074919;28;20493;-68
2021/09/06 02:33:04;;;;;;;15.35;10.05;;;19.60;91.50;;;;;;5074520;28;20029;-69
2021/09/06 02:35:29;;;;;;;13.60;10.48;;;19.60;91.50;;;;;;5074532;28;20124;-69
2021/09/06 02:37:55;;;;;;;11.63;9.63;;;19.60;91.50;;;;;;5074426;28;20028;-69
2021/09/06 02:40:21;;;;;;;16.13;10.30;;;19.50;91.30;;;;;;5074668;28;20077;-69
2021/09/06 02:42:47;;;;;;;13.23;9.98;;;19.40;91.60;;;;;;5074738;28;20116;-69
2021/09/06 02:45:13;;;;;;;15.75;10.15;;;19.50;91.50;;;;;;5074294;28;20024;-69
2021/09/06 02:47:43;;;;;;;14.48;11.05;;;19.50;91.70;;;;;;5073683;28;20020;-69
2021/09/06 02:50:08;;;;;;;14.13;10.23;;;19.40;91.70;;;;;;5073885;28;20013;-69
2021/09/06 02:52:34;;;;;;;13.38;9.98;;;19.30;92.10;;;;;;5074344;28;20029;-69
2021/09/06 02:55:00;;;;;;;13.00;9.75;;;19.20;91.60;;;;;;5074115;28;20028;-69
2021/09/06 02:57:25;;;;;;;14.50;11.45;;;19.20;91.80;;;;;;5074397;28;20024;-69
2021/09/06 02:59:51;;;;;;;17.25;13.57;;;19.10;92.10;;;;;;5074242;28;20024;-69
2021/09/06 03:02:17;;;;;;;19.38;14.18;;;19.00;92.60;;;;;;5073932;28;20033;-69
2021/09/06 03:04:43;;;;;;;18.40;14.00;;;19.10;92.60;;;;;;5074238;28;20045;-69
2021/09/06 03:07:09;;;;;;;19.50;14.07;;;19.10;92.40;;;;;;5073716;28;20087;-69
2021/09/06 03:09:35;;;;;;;21.15;15.32;;;19.20;91.90;;;;;;5074099;28;20024;-68
2021/09/06 03:12:00;;;;;;;20.80;14.77;;;19.10;92.30;;;;;;5073813;28;20398;-69
2021/09/06 03:14:26;;;;;;;20.55;15.82;;;19.00;92.40;;;;;;5073802;28;20398;-69
2021/09/06 03:16:52;;;;;;;21.25;15.88;;;19.00;92.50;;;;;;5074214;28;20418;-69
2021/09/06 03:19:18;;;;;;;19.85;14.82;;;19.00;92.50;;;;;;5073707;28;20555;-69
2021/09/06 03:21:44;;;;;;;25.45;15.65;;;18.90;92.40;;;;;;5073594;28;20036;-69
2021/09/06 03:24:10;;;;;;;20.08;15.48;;;18.90;92.60;;;;;;5073875;28;20016;-69
2021/09/06 03:26:35;;;;;;;20.02;13.90;;;19.10;92.30;;;;;;5073870;28;20028;-69
2021/09/06 03:29:01;;;;;;;22.15;15.25;;;18.90;92.50;;;;;;5073543;28;20027;-69
2021/09/06 03:31:27;;;;;;;21.30;14.90;;;19.10;92.00;;;;;;5073501;28;20032;-69
2021/09/06 03:33:53;;;;;;;16.60;12.32;;;19.10;92.10;;;;;;5073524;28;20075;-69
2021/09/06 03:36:20;;;;;;;15.48;12.13;;;19.00;92.50;;;;;;5073464;28;20084;-70
2021/09/06 03:38:46;;;;;;;15.93;12.43;;;19.00;91.60;;;;;;5073702;28;20378;-69
2021/09/06 03:41:11;;;;;;;15.68;12.10;;;19.00;91.70;;;;;;5073403;28;20039;-68
2021/09/06 03:43:37;;;;;;;14.65;11.68;;;18.90;91.90;;;;;;5073233;28;20024;-69
2021/09/06 03:46:03;;;;;;;14.93;11.93;;;18.90;91.30;;;;;;5073873;28;20017;-69
2021/09/06 03:48:29;;;;;;;16.10;11.95;;;18.80;91.10;;;;;;5073272;28;20091;-68
2021/09/06 03:50:55;;;;;;;16.40;12.43;;;18.80;91.30;;;;;;5073232;28;20046;-68
2021/09/06 03:53:20;;;;;;;18.08;13.52;;;18.70;91.70;;;;;;5073469;28;20023;-68
2021/09/06 03:55:46;;;;;;;17.48;13.23;;;18.70;92.00;;;;;;5073194;28;20029;-69
2021/09/06 03:58:12;;;;;;;17.42;13.50;;;18.60;92.20;;;;;;5073075;28;20028;-69
2021/09/06 04:00:37;;;;;;;20.65;14.80;;;18.50;92.70;;;;;;5072815;28;20025;-69
2021/09/06 04:03:03;;;;;;;22.90;15.75;;;18.50;92.30;;;;;;5073098;28;20017;-69
2021/09/06 04:05:29;;;;;;;19.98;14.70;;;18.40;92.60;;;;;;5073087;28;20052;-69
2021/09/06 04:07:54;;;;;;;26.52;15.10;;;18.50;92.90;;;;;;5072947;28;20208;-69
2021/09/06 04:10:20;;;;;;;19.17;13.13;;;18.40;93.20;;;;;;5073318;28;20036;-69
2021/09/06 04:12:46;;;;;;;19.80;13.23;;;18.40;92.50;;;;;;5073064;28;20033;-69
2021/09/06 04:15:12;;;;;;;21.80;14.32;;;18.30;92.50;;;;;;5072986;28;20397;-69
2021/09/06 04:17:38;;;;;;;20.25;15.05;;;18.40;92.90;;;;;;5073004;28;20027;-69
2021/09/06 04:20:05;;;;;;;18.42;13.60;;;18.40;93.30;;;;;;5073207;28;20033;-69
2021/09/06 04:22:32;;;;;;;18.70;13.40;;;18.30;93.60;;;;;;5072799;28;20028;-68
2021/09/06 04:25:00;;;;;;;15.82;13.40;;;18.40;93.20;;;;;;5073202;28;20040;-69
2021/09/06 04:27:25;;;;;;;14.88;11.90;;;18.40;93.20;;;;;;5073135;28;20478;-69
2021/09/06 04:29:51;;;;;;;13.90;11.68;;;18.50;93.00;;;;;;5072861;28;20029;-69
2021/09/06 04:32:17;;;;;;;16.17;10.95;;;18.40;92.70;;;;;;5073101;28;20036;-68
2021/09/06 04:34:42;;;;;;;14.98;11.32;;;18.50;92.30;;;;;;5072793;28;20029;-69
2021/09/06 04:37:08;;;;;;;16.60;12.98;;;18.50;91.90;;;;;;5072796;28;20505;-69
2021/09/06 04:39:34;;;;;;;14.32;11.80;;;18.40;92.20;;;;;;5072784;28;20047;-69
2021/09/06 04:41:59;;;;;;;15.32;12.93;;;18.40;92.30;;;;;;5072661;28;20028;-69
2021/09/06 04:44:25;;;;;;;15.25;11.90;;;18.30;92.30;;;;;;5072963;28;20020;-68
2021/09/06 04:46:51;;;;;;;15.90;12.57;;;18.30;92.20;;;;;;5073022;28;20387;-69
2021/09/06 04:49:16;;;;;;;17.55;13.57;;;18.40;92.30;;;;;;5072683;28;20025;-69
2021/09/06 04:51:42;;;;;;;15.20;12.27;;;18.30;91.70;;;;;;5072922;28;20017;-69
2021/09/06 04:54:08;;;;;;;17.42;13.13;;;18.30;91.60;;;;;;5072624;28;20104;-69
2021/09/06 04:56:33;;;;;;;18.20;12.85;;;18.30;91.70;;;;;;5072580;28;20021;-69
2021/09/06 04:58:59;;;;;;;16.23;12.63;;;18.30;92.20;;;;;;5072501;28;20020;-69
2021/09/06 05:01:24;;;;;;;20.55;13.18;;;18.30;92.10;;;;;;5072475;28;20036;-69
2021/09/06 05:03:50;;;;;;;15.32;11.70;;;18.30;92.60;;;;;;5073085;28;20056;-69
2021/09/06 05:06:17;;;;;;;15.40;12.13;;;18.10;93.20;;;;;;5072348;28;20039;-69
2021/09/06 05:08:42;;;;;;;15.90;12.50;;;18.10;93.00;;;;;;5072424;28;20500;-68
2021/09/06 05:11:08;;;;;;;16.73;13.48;;;18.20;92.50;;;;;;5072577;28;20020;-69
2021/09/06 05:13:34;;;;;;;18.13;13.50;;;18.20;92.70;;;;;;5076369;28;20024;-69
2021/09/06 05:16:00;;;;;;;15.38;12.93;;;18.20;93.10;;;;;;5076061;28;20043;-69
2021/09/06 05:18:26;;;;;;;17.27;12.63;;;18.20;92.70;;;;;;5075979;28;20039;-68
2021/09/06 05:20:52;;;;;;;17.45;11.55;;;18.20;91.70;;;;;;5076190;28;20086;-69
2021/09/06 05:23:18;;;;;;;14.23;11.63;;;18.20;91.30;;;;;;5075871;28;20536;-69
2021/09/06 05:25:43;;;;;;;13.73;11.55;;;18.20;91.90;;;;;;5075840;28;20070;-69
2021/09/06 05:28:09;;;;;;;13.80;10.75;;;18.10;92.00;;;;;;5075839;28;20029;-69
2021/09/06 05:30:35;;;;;;;15.85;11.27;;;18.00;92.30;;;;;;5076040;28;20025;-69
2021/09/06 05:33:01;;;;;;;17.67;11.38;;;18.00;92.30;;;;;;5075760;28;20039;-69
2021/09/06 05:35:27;;;;;;;15.85;11.57;;;18.00;91.80;;;;;;5075997;28;20029;-69
2021/09/06 05:37:52;;;;;;;15.10;11.32;;;18.00;92.10;;;;;;5075669;28;20059;-69
2021/09/06 05:40:18;;;;;;;14.63;11.98;;;17.90;91.80;;;;;;5076174;28;20021;-69
2021/09/06 05:42:43;;;;;;;14.65;12.63;;;17.90;91.70;;;;;;5075784;28;20032;-69
2021/09/06 05:45:10;;;;;;;16.08;12.80;;;17.70;92.50;;;;;;5075510;28;20016;-68
2021/09/06 05:47:35;;;;;;;27.05;14.52;;;17.60;92.70;;;;;;5075423;28;20364;-68
2021/09/06 05:50:01;;;;;;;13.95;11.23;;;17.60;92.60;;;;;;5075409;28;20028;-69
2021/09/06 05:52:27;;;;;;;15.43;12.05;;;17.60;92.80;;;;;;5075416;28;20028;-69
2021/09/06 05:54:52;;;;;;;15.38;12.25;;;17.70;92.30;;;;;;5075612;28;20020;-68
2021/09/06 05:57:18;;;;;;;14.68;11.82;;;17.70;92.50;;;;;;5075348;28;20035;-69
2021/09/06 05:59:44;;;;;;;17.05;12.10;;;17.80;92.30;;;;;;5075174;28;20020;-69
2021/09/06 06:02:09;;;;;;;14.88;12.27;;;17.90;92.50;;;;;;5075370;28;20086;-69
2021/09/06 06:04:36;;;;;;;16.02;12.38;;;17.90;92.20;;;;;;5075726;28;20032;-69
2021/09/06 06:07:02;;;;;;;14.95;11.40;;;17.90;92.40;;;;;;5074976;28;20088;-69
2021/09/06 06:09:28;;;;;;;15.45;12.35;;;17.80;92.20;;;;;;5075111;28;20041;-68
2021/09/06 06:11:54;;;;;;;16.92;11.50;;;17.60;93.00;;;;;;5075002;28;20108;-68
2021/09/06 06:14:20;;;;;;;12.68;10.40;;;17.10;94.10;;;;;;5074945;28;20048;-69
2021/09/06 06:16:45;;;;;;;13.05;11.07;;;17.00;95.30;;;;;;5074924;28;20024;-69
2021/09/06 06:19:11;;;;;;;12.40;10.57;;;17.20;95.10;;;;;;5075118;28;20024;-69
2021/09/06 06:21:36;;;;;;;14.35;10.93;;;17.50;94.30;;;;;;5074974;28;20040;-69
2021/09/06 06:24:03;;;;;;;17.88;11.45;;;17.60;94.00;;;;;;5074858;28;20387;-69
2021/09/06 06:26:28;;;;;;;12.77;10.63;;;17.70;93.30;;;;;;5074754;28;20395;-69
2021/09/06 06:28:54;;;;;;;12.43;10.30;;;17.70;93.50;;;;;;5074674;28;20021;-69
2021/09/06 06:31:20;;;;;;;14.05;11.10;;;17.70;93.70;;;;;;5074609;28;20021;-69
2021/09/06 06:33:46;;;;;;;13.95;10.93;;;17.90;93.50;;;;;;5074508;28;20394;-69
2021/09/06 06:36:12;;;;;;;12.52;10.68;;;17.90;93.70;;;;;;5075032;28;20103;-69
2021/09/06 06:38:37;;;;;;;14.93;12.50;;;18.00;93.50;;;;;;5074979;28;20111;-69
2021/09/06 06:41:04;;;;;;;12.32;10.43;;;18.10;93.50;;;;;;5074428;28;20085;-68
2021/09/06 06:43:30;;;;;;;12.27;10.25;;;18.20;93.20;;;;;;5074328;28;20024;-69
2021/09/06 06:45:57;;;;;;;10.80;9.10;;;18.60;92.70;;;;;;5074292;28;20021;-69
2021/09/06 06:48:23;;;;;;;10.55;8.93;;;18.80;92.50;;;;;;5074733;28;20028;-69
2021/09/06 06:50:49;;;;;;;11.95;9.45;;;19.00;92.40;;;;;;5074474;28;20101;-69
2021/09/06 06:53:15;;;;;;;11.85;9.80;;;19.00;92.50;;;;;;5072930;28;20036;-69
2021/09/06 06:55:41;;;;;;;10.63;8.93;;;19.20;92.50;;;;;;5074710;28;20036;-70
2021/09/06 06:58:06;;;;;;;11.05;9.85;;;19.30;91.80;;;;;;5074035;28;20032;-69
2021/09/06 07:00:32;;;;;;;11.32;9.68;;;19.50;91.80;;;;;;5073408;28;20498;-70
2021/09/06 07:02:58;;;;;;;9.88;8.85;;;19.60;91.70;;;;;;5073248;28;20033;-76
2021/09/06 07:05:23;;;;;;;9.50;8.13;;;19.70;91.90;;;;;;5073454;28;20024;-75
2021/09/06 07:07:49;;;;;;;10.48;8.50;;;19.90;91.40;;;;;;5072936;28;20067;-73
2021/09/06 07:10:14;;;;;;;8.45;7.25;;;20.10;91.10;;;;;;5073809;28;20020;-70
2021/09/06 07:12:41;;;;;;;8.65;7.40;;;20.30;90.60;;;;;;5073114;28;20051;-72
2021/09/06 07:15:09;;;;;;;9.45;7.93;;;20.40;90.40;;;;;;5058323;28;20083;-72
2021/09/06 07:17:35;;;;;;;8.85;7.57;;;20.50;90.40;;;;;;5065721;28;20401;-73
2021/09/06 07:20:00;;;;;;;17.35;8.55;;;20.40;90.80;;;;;;5073627;28;20024;-71
2021/09/06 07:22:26;;;;;;;11.45;8.23;;;20.50;91.20;;;;;;5073347;28;20106;-71
2021/09/06 07:24:53;;;;;;;11.13;8.13;;;20.50;90.90;;;;;;5069698;28;20025;-77
2021/09/06 07:27:19;;;;;;;11.52;8.40;;;20.70;90.60;;;;;;5072254;28;20043;-74
2021/09/06 07:29:45;;;;;;;10.50;8.07;;;20.90;90.60;;;;;;5073692;28;20482;-71
2021/09/06 07:32:11;;;;;;;19.73;11.35;;;21.10;90.10;;;;;;5073439;28;20035;-73
2021/09/06 07:34:36;;;;;;;13.52;10.38;;;21.20;90.30;;;;;;5072185;28;20448;-71
2021/09/06 07:37:07;;;;;;;14.25;10.15;;;21.30;90.50;;;;;;5073616;28;20032;-68
2021/09/06 07:39:34;;;;;;;17.38;10.35;;;21.50;90.50;;;;;;5073570;28;20103;-72
2021/09/06 07:42:00;;;;;;;12.43;9.07;;;21.70;89.80;;;;;;5073223;28;20065;-75
2021/09/06 07:44:26;;;;;;;14.18;9.10;;;21.80;90.00;;;;;;5073247;28;20431;-76
2021/09/06 07:46:52;;;;;;;15.30;10.65;;;21.90;89.80;;;;;;5072201;28;20103;-74
2021/09/06 07:49:18;;;;;;;13.88;10.45;;;22.30;88.00;;;;;;5071316;28;20029;-74
2021/09/06 07:51:51;;;;;;;12.35;9.10;;;22.50;86.90;;;;;;5072435;28;20482;-76
2021/09/06 07:54:18;;;;;;;12.07;9.82;;;22.70;85.50;;;;;;5069282;28;20020;-72
2021/09/06 07:56:46;;;;;;;22.90;13.32;;;22.80;85.20;;;;;;5072632;28;20086;-77
2021/09/06 07:59:11;;;;;;;20.95;14.20;;;22.80;93.80;;;;;;5073386;28;20032;-75
2021/09/06 08:01:39;;;;;;;15.75;11.65;;;22.60;94.10;;;;;;5072398;28;20028;-75
2021/09/06 08:04:05;;;;;;;16.17;10.30;;;22.60;93.20;;;;;;5073003;28;20020;-75
2021/09/06 08:06:30;;;;;;;18.23;12.50;;;22.60;90.10;;;;;;5072206;28;20574;-75
2021/09/06 08:08:56;;;;;;;17.15;11.45;;;22.40;94.80;;;;;;5072336;28;20078;-70
2021/09/06 08:11:21;;;;;;;13.15;10.85;;;22.40;94.60;;;;;;5072123;28;20025;-71
2021/09/06 08:13:47;;;;;;;15.00;10.93;;;22.60;94.00;;;;;;5073032;28;20479;-70
2021/09/06 08:16:13;;;;;;;12.82;10.70;;;22.70;94.50;;;;;;5072655;28;20028;-70
2021/09/06 08:18:39;;;;;;;15.65;10.63;;;23.00;93.80;;;;;;5072256;28;20498;-71
2021/09/06 08:21:06;;;;;;;14.85;10.10;;;23.20;91.80;;;;;;5072758;28;20021;-71
2021/09/06 08:23:31;;;;;;;15.38;11.05;;;23.50;91.80;;;;;;5071604;28;20079;-71
2021/09/06 08:25:57;;;;;;;14.27;10.45;;;23.60;92.10;;;;;;5072846;28;20048;-71
2021/09/06 08:28:23;;;;;;;14.23;10.38;;;23.70;90.40;;;;;;5072907;28;20029;-71
2021/09/06 08:30:49;;;;;;;14.57;10.02;;;23.90;91.20;;;;;;5071218;28;20029;-76
2021/09/06 08:33:15;;;;;;;15.32;10.88;;;24.00;91.60;;;;;;5072526;28;20028;-68
2021/09/06 08:35:47;;;;;;;13.80;9.73;;;24.00;91.80;;;;;;5072690;28;20372;-72
2021/09/06 08:38:13;;;;;;;13.05;10.02;;;24.60;89.60;;;;;;5069735;28;20529;-70
2021/09/06 08:40:39;;;;;;;13.15;10.10;;;24.90;87.40;;;;;;5071050;28;20025;-74
2021/09/06 08:43:06;;;;;;;14.93;11.82;;;25.20;85.20;;;;;;5070771;28;20035;-75
2021/09/06 08:45:36;;;;;;;14.48;10.75;;;25.50;85.20;;;;;;5071629;28;20028;-75
2021/09/06 08:48:02;;;;;;;14.23;10.10;;;25.70;83.80;;;;;;5075275;28;20028;-74
2021/09/06 08:50:28;;;;;;;14.77;10.55;;;26.00;82.10;;;;;;5075488;28;20021;-70
2021/09/06 08:52:54;;;;;;;16.98;11.63;;;26.40;81.90;;;;;;5074978;28;20467;-74
2021/09/06 08:55:20;;;;;;;14.75;11.77;;;26.30;81.00;;;;;;5075615;28;20029;-70
2021/09/06 08:57:45;;;;;;;14.90;10.55;;;26.70;80.50;;;;;;5075935;28;20035;-71
2021/09/06 09:00:12;;;;;;;15.98;10.57;;;26.70;81.50;;;;;;5076335;28;20028;-76
2021/09/06 09:02:42;;;;;;;13.15;9.80;;;27.10;79.30;;;;;;5075595;28;20028;-72
2021/09/06 09:05:10;;;;;;;13.70;9.30;;;27.50;76.40;;;;;;5076838;28;20483;-75
2021/09/06 09:07:39;;;;;;;12.20;9.27;;;27.90;73.80;;;;;;5074518;28;20049;-75
2021/09/06 09:10:08;;;;;;;14.48;9.52;;;28.10;74.10;;;;;;5076234;28;20020;-74
2021/09/06 09:12:33;;;;;;;12.00;9.80;;;28.50;72.00;;;;;;5075438;28;20111;-74
2021/09/06 09:15:01;;;;;;;13.30;9.60;;;28.80;71.60;;;;;;5076093;28;20060;-74
2021/09/06 09:17:27;;;;;;;14.52;9.20;;;28.80;71.10;;;;;;5075987;28;20025;-75
2021/09/06 09:19:58;;;;;;;12.32;8.45;;;28.60;72.40;;;;;;5075695;28;20383;-74
2021/09/06 09:22:35;;;;;;;11.27;7.97;;;29.30;70.00;;;;;;5075610;28;20033;-75
2021/09/06 09:25:04;;;;;;;14.02;8.73;;;29.60;70.60;;;;;;5075464;28;20490;-75
2021/09/06 09:27:32;;;;;;;11.07;8.70;;;30.00;66.90;;;;;;5075427;28;20017;-76
2021/09/06 09:29:59;;;;;;;10.67;8.67;;;30.10;68.00;;;;;;5075834;28;20033;-75
2021/09/06 09:32:25;;;;;;;11.23;8.15;;;30.20;66.40;;;;;;5075414;28;20039;-77
2021/09/06 09:34:51;;;;;;;12.65;7.63;;;30.40;65.80;;;;;;5075349;28;20037;-75
2021/09/06 09:37:27;;;;;;;10.98;7.50;;;30.70;65.00;;;;;;5075711;28;20078;-74
2021/09/06 09:39:59;;;;;;;10.50;7.22;;;30.70;63.90;;;;;;5075281;28;20589;-71
2021/09/06 09:42:25;;;;;;;29.23;8.48;;;30.90;64.80;;;;;;5074921;28;20032;-76
2021/09/06 09:44:56;;;;;;;10.23;7.20;;;31.40;62.20;;;;;;5075054;28;20409;-73
2021/09/06 09:47:23;;;;;;;9.57;6.68;;;31.50;61.70;;;;;;5075527;28;20518;-80
2021/09/06 09:49:51;;;;;;;10.82;7.13;;;31.60;61.60;;;;;;5075001;28;20024;-73
2021/09/06 09:52:18;;;;;;;12.18;6.85;;;31.40;60.20;;;;;;5075130;28;20486;-72
2021/09/06 09:54:53;;;;;;;12.70;7.05;;;31.70;61.30;;;;;;5072162;28;20028;-74
2021/09/06 09:57:19;;;;;;;8.70;6.40;;;31.70;60.60;;;;;;5074880;28;20048;-74
2021/09/06 09:59:45;;;;;;;8.80;6.13;;;31.30;62.30;;;;;;5075198;28;20111;-74
2021/09/06 10:02:18;;;;;;;16.30;7.05;;;31.20;60.80;;;;;;5075396;28;20099;-73
2021/09/06 10:04:55;;;;;;;8.68;5.85;;;31.30;61.40;;;;;;5074690;28;20033;-73
2021/09/06 10:07:26;;;;;;;8.85;5.95;;;30.90;61.50;;;;;;5075148;28;20066;-74
2021/09/06 10:09:52;;;;;;;9.25;5.50;;;30.90;63.50;;;;;;5074146;28;20459;-74
2021/09/06 10:12:22;;;;;;;9.05;5.95;;;31.10;61.90;;;;;;5074800;28;20067;-74
2021/09/06 10:14:56;;;;;;;7.75;5.78;;;31.10;61.70;;;;;;5074897;28;20031;-74
2021/09/06 10:17:40;;;;;;;7.85;5.65;;;31.10;62.60;;;;;;5075296;28;20035;-71
2021/09/06 10:20:12;;;;;;;6.85;5.22;;;30.80;62.30;;;;;;5075201;28;20486;-71
2021/09/06 10:22:43;;;;;;;8.00;5.30;;;30.70;62.30;;;;;;5074781;28;20094;-71
2021/09/06 10:25:19;;;;;;;8.63;5.32;;;30.50;64.30;;;;;;5074789;28;20031;-71
2021/09/06 10:28:05;;;;;;;6.13;4.75;;;30.60;63.50;;;;;;5064213;28;20070;-73
2021/09/06 10:30:40;;;;;;;9.10;6.90;;;30.70;63.10;;;;;;5065989;28;20055;-69
2021/09/06 10:33:08;;;;;;;7.03;4.78;;;30.50;64.30;;;;;;5073753;28;20444;-75
2021/09/06 10:35:34;;;;;;;9.20;5.03;;;30.40;62.80;;;;;;5074544;28;20111;-74
2021/09/06 10:38:00;;;;;;;7.88;5.22;;;30.20;63.20;;;;;;5073491;28;20024;-69
2021/09/06 10:40:29;;;;;;;8.52;5.10;;;30.10;63.50;;;;;;5073922;28;20070;-68
2021/09/06 10:42:55;;;;;;;7.20;5.47;;;29.70;65.10;;;;;;5074389;28;20532;-70
2021/09/06 10:45:22;;;;;;;6.75;4.82;;;29.40;63.90;;;;;;5074481;28;20030;-69
2021/09/06 10:47:58;;;;;;;6.40;4.55;;;29.00;67.90;;;;;;5074660;28;20073;-68
2021/09/06 10:50:24;;;;;;;6.40;4.05;;;28.80;66.60;;;;;;5074278;28;20024;-69
2021/09/06 10:52:50;;;;;;;7.90;5.00;;;28.70;68.40;;;;;;5074194;28;20031;-68
2021/09/06 10:55:18;;;;;;;6.50;4.60;;;28.50;68.50;;;;;;5074163;28;20032;-69
2021/09/06 10:57:45;;;;;;;5.53;3.97;;;28.30;66.70;;;;;;5074003;28;20020;-69
2021/09/06 11:00:16;;;;;;;8.90;4.47;;;28.20;70.60;;;;;;5074115;28;20032;-68
2021/09/06 11:02:42;;;;;;;7.53;4.15;;;28.20;68.60;;;;;;5074247;28;20025;-69
2021/09/06 11:05:16;;;;;;;6.07;4.00;;;28.00;67.60;;;;;;5073762;28;20028;-70
2021/09/06 11:07:42;;;;;;;6.70;4.47;;;27.90;70.00;;;;;;5073757;28;20098;-69
2021/09/06 11:10:12;;;;;;;5.45;3.72;;;27.90;68.00;;;;;;5073335;28;20028;-69
2021/09/06 11:12:40;;;;;;;6.20;4.10;;;27.70;68.20;;;;;;5074159;28;20078;-69
2021/09/06 11:15:06;;;;;;;6.15;3.58;;;27.60;67.80;;;;;;5073854;28;20025;-69
2021/09/06 11:17:33;;;;;;;9.82;3.90;;;27.60;67.40;;;;;;5073617;28;20521;-69
2021/09/06 11:19:59;;;;;;;6.60;3.92;;;27.50;68.60;;;;;;5073736;28;20028;-70
2021/09/06 11:22:29;;;;;;;5.72;3.88;;;27.50;69.50;;;;;;5073662;28;20028;-69
2021/09/06 11:25:00;;;;;;;7.40;3.58;;;27.50;68.10;;;;;;5073617;28;20028;-68
2021/09/06 11:27:29;;;;;;;5.38;3.63;;;27.40;69.10;;;;;;5073943;28;20390;-68
2021/09/06 11:29:55;;;;;;;8.15;4.07;;;27.30;70.10;;;;;;5073566;28;20466;-69
2021/09/06 11:32:21;;;;;;;5.70;3.22;;;27.30;68.30;;;;;;5073535;28;20081;-70
2021/09/06 11:34:49;;;;;;;4.88;3.75;;;27.40;66.20;;;;;;5073551;28;20028;-69
2021/09/06 11:37:16;;;;;;;6.10;3.50;;;27.30;67.60;;;;;;5073456;28;20461;-69
2021/09/06 11:39:45;;;;;;;5.00;3.38;;;27.20;68.30;;;;;;5073465;28;20090;-69
2021/09/06 11:42:11;;;;;;;4.93;3.47;;;27.30;66.30;;;;;;5073862;28;20035;-68
2021/09/06 11:44:37;;;;;;;4.60;3.30;;;27.40;66.00;;;;;;5073413;28;20016;-69
2021/09/06 11:47:04;;;;;;;4.10;3.30;;;27.40;65.40;;;;;;5073885;28;20024;-69
2021/09/06 11:49:29;;;;;;;6.97;3.65;;;27.60;63.80;;;;;;5073618;28;20017;-69
2021/09/06 11:52:09;;;;;;;4.70;3.42;;;27.60;64.80;;;;;;5073349;28;20367;-69
2021/09/06 11:54:43;;;;;;;5.78;3.50;;;27.50;64.90;;;;;;5073283;28;20360;-69
2021/09/06 11:57:11;;;;;;;4.53;3.75;;;27.40;65.40;;;;;;5073504;28;20033;-68
2021/09/06 11:59:37;;;;;;;4.95;3.70;;;27.40;65.20;;;;;;5071882;28;20021;-69
2021/09/06 12:02:11;;;;;;;5.80;3.42;;;27.40;66.00;;;;;;5073330;28;20036;-69
2021/09/06 12:04:37;;;;;;;4.97;3.40;;;27.40;66.00;;;;;;5073475;28;20016;-70
2021/09/06 12:07:19;;;;;;;8.05;3.85;;;27.40;65.80;;;;;;5073088;28;20068;-69
2021/09/06 12:09:47;;;;;;;7.40;3.70;;;27.70;63.60;;;;;;5072703;28;20012;-76
2021/09/06 12:12:23;;;;;;;7.13;3.83;;;27.80;63.20;;;;;;5071718;28;20032;-77
2021/09/06 12:14:51;;;;;;;10.52;4.00;;;27.70;65.30;;;;;;5066958;28;20020;-71
2021/09/06 12:17:17;;;;;;;9.43;4.10;;;27.50;66.60;;;;;;5073318;28;20031;-76
2021/09/06 12:19:46;;;;;;;6.22;3.88;;;27.60;64.90;;;;;;5072362;28;20141;-74
2021/09/06 12:22:20;;;;;;;5.60;3.90;;;27.60;65.50;;;;;;5076068;28;20036;-75
2021/09/06 12:24:47;;;;;;;4.97;3.55;;;27.70;65.50;;;;;;5076807;28;20082;-74
2021/09/06 12:27:16;;;;;;;5.90;3.90;;;27.70;64.00;;;;;;5076571;28;20028;-76
2021/09/06 12:29:43;;;;;;;6.18;3.88;;;27.80;64.90;;;;;;5077543;28;20042;-72
2021/09/06 12:32:13;;;;;;;6.72;3.97;;;27.60;66.90;;;;;;5076557;28;20032;-77
2021/09/06 12:34:39;;;;;;;9.70;3.97;;;27.60;65.70;;;;;;5076738;28;20089;-75